Time;durP1;ratioP1;P1;durP2;ratioP2;P2;SDS_P1;SDS_P2;PMS_P1;PMS_P2;Temp;Humidity;BMP_temperature;BMP_pressure;BME280_temperature;BME280_humidity;BME280_pressure;Samples;Min_cycle;Max_cycle;Signal;HPM_P1;HPM_P2
2021/12/09 00:01:23;;;;;;;58.73;28.77;;;;;;;-2.02;100.00;99957.09;4896768;29;20104;-80
2021/12/09 00:03:57;;;;;;;61.80;28.07;;;;;;;-2.09;100.00;99956.13;4909056;29;20135;-80
2021/12/09 00:06:27;;;;;;;59.10;25.63;;;;;;;-2.04;100.00;99967.44;4886273;29;20052;-80
2021/12/09 00:09:01;;;;;;;68.47;27.70;;;;;;;-2.09;100.00;99968.22;4883983;29;20063;-80
2021/12/09 00:11:29;;;;;;;;;;;;;;;-2.16;100.00;99974.97;4890900;29;20070;-80
2021/12/09 00:13:56;;;;;;;60.87;26.77;;;;;;;-2.30;100.00;99966.94;4894514;29;20403;-81
2021/12/09 00:16:23;;;;;;;58.87;25.37;;;;;;;-2.23;100.00;99957.56;4901402;29;20055;-80
2021/12/09 00:18:49;;;;;;;58.17;26.27;;;;;;;-2.16;100.00;99961.16;4916005;29;20081;-80
2021/12/09 00:21:16;;;;;;;62.23;28.93;;;;;;;-2.11;100.00;99965.56;4885348;29;20542;-80
2021/12/09 00:23:43;;;;;;;64.20;27.27;;;;;;;-2.08;100.00;99964.78;4915111;29;20376;-81
2021/12/09 00:26:10;;;;;;;63.17;27.10;;;;;;;-2.16;100.00;99956.84;4909728;29;20414;-81
2021/12/09 00:28:36;;;;;;;56.57;28.63;;;;;;;-2.36;100.00;99953.84;4896795;29;20055;-80
2021/12/09 00:31:04;;;;;;;67.00;29.07;;;;;;;-2.19;100.00;99959.38;4884773;29;20047;-81
2021/12/09 00:33:31;;;;;;;63.70;28.03;;;;;;;-2.23;100.00;99960.16;4878277;29;20574;-81
2021/12/09 00:36:01;;;;;;;60.90;27.07;;;;;;;-2.37;100.00;99946.94;4875241;29;20044;-80
2021/12/09 00:38:34;;;;;;;57.13;26.87;;;;;;;-2.28;100.00;99946.25;4909999;29;20055;-80
2021/12/09 00:41:14;;;;;;;60.75;26.52;;;;;;;-2.28;100.00;99944.53;4884051;29;20036;-80
2021/12/09 00:43:42;;;;;;;60.80;26.87;;;;;;;-2.24;100.00;99949.78;4889779;29;20474;-80
2021/12/09 00:46:12;;;;;;;65.30;28.90;;;;;;;-2.33;100.00;99946.19;4905083;29;20046;-80
2021/12/09 00:48:40;;;;;;;58.53;26.87;;;;;;;-2.34;100.00;99933.22;4895894;29;20747;-80
2021/12/09 00:51:08;;;;;;;69.97;27.50;;;;;;;-2.18;100.00;99927.50;4897991;29;20052;-80
2021/12/09 00:53:35;;;;;;;64.97;30.47;;;;;;;-2.27;100.00;99922.13;4879329;29;20099;-80
2021/12/09 00:56:04;;;;;;;61.53;27.03;;;;;;;-2.28;100.00;99913.50;4889094;29;20414;-81
2021/12/09 00:58:30;;;;;;;66.13;27.50;;;;;;;-2.27;100.00;99910.09;4896714;29;20052;-80
2021/12/09 01:00:57;;;;;;;61.47;27.60;;;;;;;-2.30;100.00;99911.72;4875434;29;20134;-80
2021/12/09 01:03:24;;;;;;;56.87;25.67;;;;;;;-2.35;100.00;99914.25;4890295;29;20982;-80
2021/12/09 01:05:51;;;;;;;62.73;27.97;;;;;;;-2.48;100.00;99917.41;4900975;29;20037;-80
2021/12/09 01:08:38;;;;;;;61.97;27.50;;;;;;;-2.29;100.00;99924.69;4900311;29;20115;-80
2021/12/09 01:11:06;;;;;;;63.97;27.13;;;;;;;-2.27;100.00;99935.97;4897151;29;20070;-80
2021/12/09 01:13:33;;;;;;;59.90;26.67;;;;;;;-2.25;100.00;99937.69;4899937;29;20049;-81
2021/12/09 01:16:00;;;;;;;62.83;28.13;;;;;;;-2.20;100.00;99928.28;4902397;29;20478;-80
2021/12/09 01:18:31;;;;;;;64.13;28.97;;;;;;;-2.17;100.00;99928.38;4901696;29;20050;-80
2021/12/09 01:20:58;;;;;;;62.00;27.97;;;;;;;-2.22;100.00;99928.28;4891085;29;20057;-80
2021/12/09 01:23:25;;;;;;;68.97;27.87;;;;;;;-2.34;100.00;99928.91;4878180;29;20724;-80
2021/12/09 01:25:58;;;;;;;55.97;25.93;;;;;;;-2.30;100.00;99922.94;4888072;29;20550;-80
2021/12/09 01:28:28;;;;;;;57.00;25.77;;;;;;;-2.27;100.00;99917.84;4892711;29;21045;-80
2021/12/09 01:31:01;;;;;;;68.03;29.10;;;;;;;-2.23;100.00;99921.34;4905045;29;20048;-80
2021/12/09 01:33:29;;;;;;;65.47;29.73;;;;;;;-2.35;100.00;99922.00;4885907;29;20383;-80
2021/12/09 01:35:56;;;;;;;62.60;27.63;;;;;;;-2.24;100.00;99914.44;4901479;29;20064;-79
2021/12/09 01:38:25;;;;;;;68.70;28.70;;;;;;;-2.28;100.00;99918.66;4894993;29;20048;-80
2021/12/09 01:40:51;;;;;;;55.60;26.50;;;;;;;-2.38;99.67;99909.00;4890063;29;20047;-80
2021/12/09 01:43:18;;;;;;;63.87;28.20;;;;;;;-2.30;100.00;99907.41;4895261;29;20080;-79
2021/12/09 01:45:45;;;;;;;71.67;29.37;;;;;;;-2.34;100.00;99903.03;4889895;29;20502;-80
2021/12/09 01:48:16;;;;;;;65.03;28.53;;;;;;;-2.35;100.00;99903.91;4980200;23;20055;-93
2021/12/09 01:50:42;;;;;;;60.50;29.50;;;;;;;-2.31;100.00;99907.41;4940100;29;20019;-92
2021/12/09 01:53:10;;;;;;;57.33;27.17;;;;;;;-2.39;100.00;99906.38;4924790;29;20039;-93
2021/12/09 01:55:37;;;;;;;63.77;29.27;;;;;;;-2.31;100.00;99915.16;4941876;29;20028;-93
2021/12/09 01:58:03;;;;;;;66.60;30.27;;;;;;;-2.27;100.00;99909.19;4908232;29;20069;-93
2021/12/09 02:00:32;;;;;;;65.63;28.03;;;;;;;-2.29;100.00;99916.06;4917261;29;20029;-92
2021/12/09 02:03:02;;;;;;;66.37;28.60;;;;;;;-2.48;100.00;99908.78;4909229;29;20044;-93
2021/12/09 02:05:29;;;;;;;63.80;27.77;;;;;;;-2.39;100.00;99912.41;4895453;29;20028;-93
2021/12/09 02:07:56;;;;;;;62.83;29.70;;;;;;;-2.39;100.00;99917.59;4907731;29;20024;-93
2021/12/09 02:10:23;;;;;;;64.07;28.07;;;;;;;-2.45;99.98;99922.63;4905293;29;20061;-93
2021/12/09 02:12:51;;;;;;;62.53;28.63;;;;;;;-2.43;100.00;99923.56;4897997;29;20092;-93
2021/12/09 02:15:21;;;;;;;63.33;28.80;;;;;;;-2.44;100.00;99932.13;4922102;29;20028;-94
2021/12/09 02:17:49;;;;;;;58.10;27.60;;;;;;;-2.49;100.00;99928.59;4910593;29;20036;-92
2021/12/09 02:20:16;;;;;;;57.23;26.80;;;;;;;-2.55;100.00;99933.66;4903378;29;20092;-93
2021/12/09 02:22:46;;;;;;;58.57;27.67;;;;;;;-2.52;100.00;99927.66;4896603;29;20032;-95
2021/12/09 02:25:15;;;;;;;66.10;27.93;;;;;;;-2.42;100.00;99924.44;4924318;29;20032;-93
2021/12/09 02:27:43;;;;;;;61.73;27.80;;;;;;;-2.37;100.00;99927.97;4911330;29;20028;-93
2021/12/09 02:30:11;;;;;;;63.40;28.40;;;;;;;-2.34;100.00;99933.22;4890980;29;20057;-93
2021/12/09 02:32:38;;;;;;;63.53;27.50;;;;;;;-2.46;100.00;99923.47;4926223;29;20024;-92
2021/12/09 02:35:05;;;;;;;64.63;27.80;;;;;;;-2.40;100.00;99927.91;4906346;29;20111;-94
2021/12/09 02:37:33;;;;;;;69.40;28.87;;;;;;;-2.34;100.00;99921.16;4891291;29;20156;-93
2021/12/09 02:40:00;;;;;;;57.57;27.10;;;;;;;-2.29;100.00;99922.09;4890458;29;20032;-93
2021/12/09 02:42:27;;;;;;;61.17;27.70;;;;;;;-2.22;100.00;99910.16;4893124;29;20147;-92
2021/12/09 02:44:55;;;;;;;54.27;25.37;;;;;;;-2.32;100.00;99911.69;4902707;29;20029;-94
2021/12/09 02:47:22;;;;;;;59.27;26.13;;;;;;;-2.37;100.00;99915.91;4906297;29;20115;-94
2021/12/09 02:49:49;;;;;;;54.37;26.50;;;;;;;-2.43;100.00;99915.81;4910278;29;20032;-93
2021/12/09 02:52:16;;;;;;;59.03;27.13;;;;;;;-2.31;100.00;99912.56;4916612;29;20046;-91
2021/12/09 02:54:43;;;;;;;70.20;29.90;;;;;;;-2.31;100.00;99921.22;4936603;29;20095;-93
2021/12/09 02:57:13;;;;;;;59.97;26.30;;;;;;;-2.38;100.00;99929.69;4893501;29;20024;-93
2021/12/09 02:59:40;;;;;;;58.90;25.93;;;;;;;-2.43;100.00;99926.16;4912001;29;20056;-93
2021/12/09 03:02:09;;;;;;;59.67;27.57;;;;;;;-2.34;100.00;99925.47;4884601;29;20024;-94
2021/12/09 03:04:38;;;;;;;61.67;27.67;;;;;;;-2.27;100.00;99925.63;4912044;29;20028;-93
2021/12/09 03:07:14;;;;;;;60.50;27.27;;;;;;;-2.28;100.00;99897.97;4912276;29;20034;-93
2021/12/09 03:09:50;;;;;;;57.93;25.67;;;;;;;-2.35;100.00;99903.91;4907033;29;20028;-93
2021/12/09 03:12:40;;;;;;;67.30;28.50;;;;;;;-2.31;100.00;99907.41;4911925;29;20028;-91
2021/12/09 03:15:08;;;;;;;57.57;24.40;;;;;;;-2.27;100.00;99910.09;4921697;29;20055;-94
2021/12/09 03:17:37;;;;;;;59.47;28.83;;;;;;;-2.22;100.00;99911.88;4910372;29;20038;-93
2021/12/09 03:20:08;;;;;;;63.40;26.97;;;;;;;-2.35;100.00;99906.47;4897652;29;20035;-93
2021/12/09 03:22:36;;;;;;;62.60;27.37;;;;;;;-2.44;100.00;99906.28;4913349;29;20028;-92
2021/12/09 03:25:09;;;;;;;59.43;25.20;;;;;;;-2.49;100.00;99920.84;4915057;29;20099;-93
2021/12/09 03:27:36;;;;;;;61.47;27.47;;;;;;;-2.36;100.00;99919.34;4910999;29;20027;-93
2021/12/09 03:30:05;;;;;;;61.13;28.20;;;;;;;-2.49;100.00;99923.44;4894237;29;20031;-92
2021/12/09 03:32:32;;;;;;;67.47;28.03;;;;;;;-2.47;100.00;99926.91;4892655;29;20040;-92
2021/12/09 03:34:59;;;;;;;54.63;24.90;;;;;;;-2.37;100.00;99915.03;4890858;29;20040;-92
2021/12/09 03:37:29;;;;;;;60.60;27.73;;;;;;;-2.30;100.00;99914.31;4913667;29;20025;-92
2021/12/09 03:39:56;;;;;;;61.13;27.67;;;;;;;-2.36;100.00;99919.34;4894389;29;20039;-94
2021/12/09 03:42:27;;;;;;;72.00;30.30;;;;;;;-2.45;100.00;99932.13;4901998;29;20071;-93
2021/12/09 03:44:54;;;;;;;57.50;25.73;;;;;;;-2.28;100.00;99936.78;4946555;29;20032;-93
2021/12/09 03:47:23;;;;;;;59.47;26.47;;;;;;;-2.31;100.00;99926.38;4915699;29;20035;-94
2021/12/09 03:49:51;;;;;;;56.80;25.57;;;;;;;-2.25;100.00;99917.88;4922618;29;20024;-93
2021/12/09 03:52:19;;;;;;;49.70;23.97;;;;;;;-2.25;100.00;99917.88;4911886;29;20054;-92
2021/12/09 03:54:46;;;;;;;56.63;27.37;;;;;;;-2.31;100.00;99910.84;4909829;29;20035;-94
2021/12/09 03:57:13;;;;;;;58.90;26.77;;;;;;;-2.26;100.00;99910.97;4917448;29;20350;-93
2021/12/09 03:59:41;;;;;;;57.97;24.20;;;;;;;-2.30;100.00;99910.00;4918262;29;20028;-94
2021/12/09 04:02:09;;;;;;;54.37;26.47;;;;;;;-2.36;100.00;99902.13;4894986;29;20028;-92
2021/12/09 04:04:38;;;;;;;58.13;26.83;;;;;;;-2.46;100.00;99907.09;4919950;29;20036;-94
2021/12/09 04:07:07;;;;;;;61.20;27.47;;;;;;;-2.34;100.00;99902.19;4912003;29;20031;-93
2021/12/09 04:09:34;;;;;;;60.37;26.70;;;;;;;-2.22;100.00;99899.81;4921975;29;20024;-95
2021/12/09 04:12:01;;;;;;;59.33;25.27;;;;;;;-2.22;100.00;99893.75;4913261;29;20043;-95
2021/12/09 04:14:30;;;;;;;54.80;24.97;;;;;;;-2.18;100.00;99893.88;4889217;29;20040;-94
2021/12/09 04:16:57;;;;;;;59.33;26.60;;;;;;;-2.26;100.00;99895.44;4895416;29;20056;-93
2021/12/09 04:19:24;;;;;;;60.50;26.83;;;;;;;-2.31;100.00;99897.91;4913326;29;20048;-93
2021/12/09 04:22:03;;;;;;;60.20;24.60;;;;;;;-2.40;100.00;99895.16;4931910;29;20250;-93
2021/12/09 04:24:29;;;;;;;52.67;26.23;;;;;;;-2.28;100.00;99897.97;4901516;29;20092;-93
2021/12/09 04:26:57;;;;;;;61.60;25.87;;;;;;;-2.24;100.00;99891.16;4902606;29;20029;-92
2021/12/09 04:29:24;;;;;;;56.07;25.03;;;;;;;-2.20;100.00;99880.00;4902905;29;20048;-92
2021/12/09 04:31:52;;;;;;;56.10;27.23;;;;;;;-2.15;100.00;99878.38;4909631;29;20053;-93
2021/12/09 04:34:19;;;;;;;58.10;25.90;;;;;;;-2.16;100.00;99891.28;4907360;29;20038;-92
2021/12/09 04:36:47;;;;;;;61.07;25.30;;;;;;;-2.27;100.00;99897.16;4906808;29;20033;-94
2021/12/09 04:39:14;;;;;;;59.43;26.77;;;;;;;-2.35;100.00;99883.19;4913337;29;20062;-93
2021/12/09 04:41:41;;;;;;;56.43;25.50;;;;;;;-2.27;100.00;99902.31;4896092;29;20056;-95
2021/12/09 04:44:09;;;;;;;57.77;25.43;;;;;;;-2.14;100.00;99905.13;4915421;29;20028;-93
2021/12/09 04:46:36;;;;;;;57.50;26.00;;;;;;;-2.19;100.00;99896.41;4913799;29;20020;-93
2021/12/09 04:49:05;;;;;;;55.97;24.57;;;;;;;-2.22;100.00;99898.94;4904185;29;20052;-94
2021/12/09 04:51:33;;;;;;;52.77;25.10;;;;;;;-2.19;100.00;99897.25;4930399;29;20058;-93
2021/12/09 04:54:00;;;;;;;53.23;24.67;;;;;;;-2.24;100.00;99901.50;4904440;29;20034;-93
2021/12/09 04:56:27;;;;;;;52.93;24.47;;;;;;;-2.10;100.00;99904.31;4897755;29;20080;-93
2021/12/09 04:58:54;;;;;;;53.33;26.80;;;;;;;-2.18;100.00;99901.63;4895024;29;20051;-94
2021/12/09 05:01:21;;;;;;;62.17;27.60;;;;;;;-2.18;100.00;99893.88;4917306;29;20034;-94
2021/12/09 05:03:51;;;;;;;56.23;25.40;;;;;;;-2.22;100.00;99896.34;4898243;29;20080;-95
2021/12/09 05:06:18;;;;;;;57.73;26.17;;;;;;;-2.20;100.00;99886.91;4894921;29;20036;-92
2021/12/09 05:08:48;;;;;;;59.90;28.50;;;;;;;-2.16;100.00;99899.94;4913799;29;20020;-93
2021/12/09 05:13:56;;;;;;;77.93;37.03;;;;;;;-2.17;100.00;99893.00;4901296;29;20115;-93
2021/12/09 05:16:24;;;;;;;100.43;45.23;;;;;;;-2.24;100.00;99895.47;4891450;29;20040;-93
2021/12/09 05:18:57;;;;;;;67.07;31.10;;;;;;;-2.28;100.00;99897.97;4890059;29;20029;-94
2021/12/09 05:21:34;;;;;;;60.67;25.17;;;;;;;-2.17;100.00;99907.66;4911032;29;20040;-92
2021/12/09 05:24:01;;;;;;;61.67;26.93;;;;;;;-2.12;100.00;99911.19;4926982;29;20035;-93
2021/12/09 05:26:29;;;;;;;62.33;28.47;;;;;;;-2.08;100.00;99913.88;4889293;29;20028;-92
2021/12/09 05:28:57;;;;;;;57.80;26.37;;;;;;;-2.12;100.00;99925.00;4909495;29;20035;-94
2021/12/09 05:34:11;;;;;;;65.87;29.13;;;;;;;-2.14;100.00;99926.69;4927324;29;20029;-92
2021/12/09 05:36:38;;;;;;;60.37;28.17;;;;;;;-2.21;100.00;99936.91;4931400;29;20035;-93
2021/12/09 05:39:08;;;;;;;56.40;25.03;;;;;;;-2.12;100.00;99960.38;4896072;29;20051;-92
2021/12/09 05:41:35;;;;;;;59.70;26.47;;;;;;;-2.06;100.00;99976.88;4907636;29;20047;-93
2021/12/09 05:44:03;;;;;;;58.53;26.80;;;;;;;-2.06;100.00;99968.25;4893358;29;20188;-93
2021/12/09 05:46:30;;;;;;;61.47;25.83;;;;;;;-2.05;100.00;99988.97;4894677;29;20028;-94
2021/12/09 05:48:57;;;;;;;64.57;26.60;;;;;;;-2.07;100.00;99989.81;4925576;29;20024;-94
2021/12/09 05:51:25;;;;;;;70.00;28.87;;;;;;;-2.13;100.00;99992.25;4898580;29;20028;-91
2021/12/09 05:53:52;;;;;;;59.37;25.80;;;;;;;-2.10;100.00;99977.69;4915233;29;20040;-92
2021/12/09 05:56:19;;;;;;;62.57;27.20;;;;;;;-2.01;100.00;99980.44;4909791;29;20030;-92
2021/12/09 05:58:46;;;;;;;54.57;24.93;;;;;;;-2.07;100.00;99969.09;4908104;29;20117;-92
2021/12/09 06:01:14;;;;;;;61.97;26.27;;;;;;;-2.13;100.00;99969.84;4906132;29;20051;-92
2021/12/09 06:03:41;;;;;;;61.67;28.03;;;;;;;-2.11;100.00;99967.28;4908224;29;20862;-91
2021/12/09 06:06:08;;;;;;;58.93;27.10;;;;;;;-2.04;100.00;99963.97;4941747;29;20052;-93
2021/12/09 06:08:38;;;;;;;60.00;28.93;;;;;;;-1.99;100.00;99970.13;4917105;29;20060;-94
2021/12/09 06:11:06;;;;;;;64.60;29.27;;;;;;;-2.06;100.00;99982.06;4900062;29;20024;-94
2021/12/09 06:13:36;;;;;;;57.03;28.07;;;;;;;-2.09;100.00;99987.19;4923953;29;20032;-93
2021/12/09 06:16:06;;;;;;;59.27;27.17;;;;;;;-2.07;100.00;99976.88;4906402;29;20040;-92
2021/12/09 06:18:33;;;;;;;63.20;26.77;;;;;;;-2.13;100.00;99984.50;4922224;29;20035;-94
2021/12/09 06:21:01;;;;;;;61.60;28.27;;;;;;;-2.00;100.00;100002.91;4908429;29;20046;-93
2021/12/09 06:23:28;;;;;;;60.40;26.50;;;;;;;-1.98;100.00;99983.09;4919290;29;20104;-92
2021/12/09 06:25:55;;;;;;;65.13;29.03;;;;;;;-2.04;100.00;99975.19;4910139;29;20039;-94
2021/12/09 06:28:22;;;;;;;62.97;27.97;;;;;;;-2.14;100.00;99968.09;4886986;29;20035;-93
2021/12/09 06:30:49;;;;;;;58.80;26.73;;;;;;;-2.07;100.00;99962.22;4909653;29;20047;-93
2021/12/09 06:33:17;;;;;;;63.77;29.17;;;;;;;-2.30;100.00;99954.00;4895646;29;20047;-94
2021/12/09 06:35:44;;;;;;;234.53;99.13;;;;;;;-2.16;100.00;99937.88;4899971;29;20046;-93
2021/12/09 06:38:15;;;;;;;181.20;87.70;;;;;;;-2.14;100.00;99943.94;4913893;29;20025;-94
2021/12/09 06:40:44;;;;;;;157.80;66.70;;;;;;;-2.02;100.00;99957.09;4905794;29;20032;-92
2021/12/09 06:43:12;;;;;;;75.33;35.80;;;;;;;-2.07;100.00;99967.38;4910480;29;20030;-94
2021/12/09 06:45:42;;;;;;;71.93;33.90;;;;;;;-2.04;100.00;99963.97;4925623;29;20029;-93
2021/12/09 06:48:10;;;;;;;71.70;34.23;;;;;;;-2.11;100.00;99964.69;4897333;29;20030;-92
2021/12/09 06:50:38;;;;;;;55.83;27.90;;;;;;;-2.06;100.00;99955.31;4905679;29;20015;-95
2021/12/09 06:53:08;;;;;;;64.47;30.10;;;;;;;-1.95;100.00;99979.66;4921580;29;20042;-94
2021/12/09 06:55:38;;;;;;;67.63;38.90;;;;;;;-1.95;100.00;99990.03;4928054;29;20028;-94
2021/12/09 06:58:07;;;;;;;68.43;31.30;;;;;;;-2.04;100.00;100000.22;4911305;29;20100;-93
2021/12/09 07:00:41;;;;;;;61.50;27.13;;;;;;;-2.02;100.00;99989.06;4925087;29;21702;-95
2021/12/09 07:03:10;;;;;;;61.87;29.47;;;;;;;-2.00;100.00;99983.91;4910544;29;20029;-93
2021/12/09 07:05:38;;;;;;;57.53;29.10;;;;;;;-2.07;100.00;99969.09;4927125;29;20024;-93
2021/12/09 07:08:06;;;;;;;69.43;30.43;;;;;;;-1.89;100.00;99953.03;4907358;29;20052;-92
2021/12/09 07:10:33;;;;;;;62.30;27.20;;;;;;;-2.06;100.00;99968.25;4910204;29;20056;-92
2021/12/09 07:13:01;;;;;;;65.37;27.30;;;;;;;-2.03;100.00;99964.00;4910961;29;20023;-92
2021/12/09 07:15:31;;;;;;;64.07;28.53;;;;;;;-2.03;100.00;99976.06;4902544;29;20047;-93
2021/12/09 07:17:58;;;;;;;58.70;27.03;;;;;;;-2.08;100.00;99964.78;4902789;29;20030;-93
2021/12/09 07:20:27;;;;;;;62.63;31.03;;;;;;;-2.11;100.00;99951.75;4920853;29;20032;-93
2021/12/09 07:22:55;;;;;;;64.80;28.80;;;;;;;-1.94;100.00;99945.16;4917212;29;20025;-93
2021/12/09 07:25:24;;;;;;;57.97;26.80;;;;;;;-1.94;100.00;99947.75;4899439;29;20040;-93
2021/12/09 07:27:52;;;;;;;54.67;25.63;;;;;;;-2.05;100.00;99946.69;4917184;29;20218;-94
2021/12/09 07:30:20;;;;;;;62.50;29.03;;;;;;;-2.01;100.00;99946.81;4894788;29;20020;-94
2021/12/09 07:32:48;;;;;;;63.03;27.77;;;;;;;-2.00;100.00;99934.72;4916706;29;20023;-93
2021/12/09 07:35:16;;;;;;;56.83;25.17;;;;;;;-2.00;100.00;99948.53;4910649;29;20024;-92
2021/12/09 07:37:58;;;;;;;58.10;28.87;;;;;;;-2.04;100.00;99935.50;4929421;29;20020;-93
2021/12/09 07:40:28;;;;;;;57.93;26.97;;;;;;;-1.89;100.00;99959.09;4934247;29;20036;-94
2021/12/09 07:43:12;;;;;;;61.90;28.00;;;;;;;-2.04;100.00;99953.63;4897188;29;20089;-93
2021/12/09 07:45:53;;;;;;;61.80;25.48;;;;;;;-2.02;100.00;99946.75;4905333;29;20038;-94
2021/12/09 07:48:23;;;;;;;64.97;27.93;;;;;;;-1.91;100.00;99960.78;4928262;29;20079;-92
2021/12/09 07:50:52;;;;;;;67.83;29.70;;;;;;;-1.85;100.00;99960.91;4916837;29;20041;-93
2021/12/09 07:53:33;;;;;;;61.50;26.87;;;;;;;-1.96;100.00;99971.88;4922526;29;20035;-92
2021/12/09 13:59:04;;;;;;;45.97;22.00;;;;;;;-0.89;100.00;99935.66;4943305;29;20084;-94
2021/12/09 14:01:30;;;;;;;47.43;23.17;;;;;;;-0.89;100.00;99943.44;4866527;29;20048;-83
2021/12/09 14:03:57;;;;;;;47.83;22.67;;;;;;;-0.93;100.00;99959.78;4845664;29;20044;-85
2021/12/09 14:06:24;;;;;;;58.20;24.60;;;;;;;-0.95;100.00;99951.13;4846304;29;20075;-84
2021/12/09 14:08:54;;;;;;;51.20;25.33;;;;;;;-0.95;100.00;99951.13;4871698;29;20053;-82
2021/12/09 14:11:33;;;;;;;47.73;23.30;;;;;;;-0.95;100.00;99956.31;4862886;29;20049;-83
2021/12/09 14:14:06;;;;;;;52.33;24.50;;;;;;;-0.93;100.00;99962.38;4863859;29;20053;-84
2021/12/09 14:21:48;;;;;;;54.07;24.13;;;;;;;-1.06;100.00;99952.69;4881349;29;20061;-85
2021/12/09 14:24:23;;;;;;;46.40;23.27;;;;;;;-0.97;100.00;99945.91;4875803;29;20049;-84
2021/12/09 14:27:02;;;;;;;51.67;22.53;;;;;;;-0.96;100.00;99955.44;4870637;29;20052;-83
2021/12/09 14:29:32;;;;;;;48.67;24.00;;;;;;;-1.01;100.00;99962.28;4843733;29;20525;-85
2021/12/09 14:32:03;;;;;;;47.57;23.73;;;;;;;-0.97;100.00;99970.97;4846931;29;20045;-84
2021/12/09 14:34:38;;;;;;;54.90;24.77;;;;;;;-1.04;100.00;99957.03;4847512;29;20388;-82
2021/12/09 14:37:05;;;;;;;52.40;26.00;;;;;;;-1.20;100.00;99958.53;4862077;29;20434;-84
2021/12/09 14:39:31;;;;;;;47.97;23.63;;;;;;;-1.11;100.00;99951.75;4882195;29;20045;-85
2021/12/09 14:42:17;;;;;;;48.43;24.87;;;;;;;-0.97;100.00;99945.03;4867873;29;20444;-84
2021/12/09 14:44:56;;;;;;;49.97;23.17;;;;;;;-0.95;100.00;99954.56;4849617;29;20053;-85
2021/12/09 14:47:23;;;;;;;47.43;22.73;;;;;;;-1.15;100.00;99954.28;4846361;29;20049;-84
2021/12/09 14:49:55;;;;;;;50.67;24.63;;;;;;;-1.26;100.00;99944.59;4845302;29;20052;-83
2021/12/09 14:52:45;;;;;;;53.87;24.30;;;;;;;-1.06;100.00;99942.31;4860180;29;20049;-85
2021/12/09 14:55:18;;;;;;;56.43;25.07;;;;;;;-1.10;100.00;99946.56;4845659;29;20492;-85
2021/12/09 14:58:00;;;;;;;51.47;23.93;;;;;;;-1.27;100.00;99945.44;4852978;29;20513;-84
2021/12/09 15:00:30;;;;;;;48.43;24.77;;;;;;;-1.18;100.00;99945.59;4859169;29;20044;-83
2021/12/09 15:02:57;;;;;;;52.93;24.43;;;;;;;-1.24;100.00;99935.16;4866815;29;20053;-86
2021/12/09 15:05:24;;;;;;;54.17;24.63;;;;;;;-1.20;100.00;99930.00;4859831;29;20498;-85
2021/12/09 15:07:53;;;;;;;51.13;23.63;;;;;;;-1.18;100.00;99937.81;4892810;29;20055;-85
2021/12/09 15:10:23;;;;;;;55.27;25.33;;;;;;;-1.24;100.00;99942.91;4852569;29;20044;-84
2021/12/09 15:12:50;;;;;;;52.03;24.17;;;;;;;-1.29;100.00;99942.84;4866918;29;20391;-85
2021/12/09 15:15:25;;;;;;;55.03;25.23;;;;;;;-1.26;100.00;99952.38;4869996;29;20498;-83
2021/12/09 15:17:56;;;;;;;60.80;27.77;;;;;;;-1.00;100.00;99940.69;4881693;29;20079;-85
2021/12/09 15:20:42;;;;;;;54.33;26.23;;;;;;;-1.21;100.00;99938.63;4866992;29;20048;-84
2021/12/09 15:23:31;;;;;;;48.73;24.53;;;;;;;-1.08;100.00;99938.84;4854870;29;20075;-84
2021/12/09 15:25:59;;;;;;;52.63;25.23;;;;;;;-1.09;100.00;99924.09;4865022;29;20057;-82
2021/12/09 15:28:26;;;;;;;48.17;23.97;;;;;;;-1.28;100.00;99925.56;4856396;29;20049;-85
2021/12/09 15:30:58;;;;;;;58.27;28.50;;;;;;;-1.33;100.00;99929.81;4858272;29;20041;-86
2021/12/09 15:33:38;;;;;;;66.13;28.50;;;;;;;-1.27;100.00;99938.53;4864243;29;20475;-85
2021/12/09 15:36:07;;;;;;;77.33;34.43;;;;;;;-1.21;100.00;99924.81;4884773;29;20045;-85
2021/12/09 15:38:36;;;;;;;84.20;36.50;;;;;;;-1.17;100.00;99937.84;4868178;29;20048;-87
2021/12/09 15:41:05;;;;;;;64.77;31.27;;;;;;;-1.14;100.00;99929.25;4878673;29;20045;-85
2021/12/09 15:43:32;;;;;;;58.23;24.83;;;;;;;-1.15;100.00;99938.75;4855601;29;20048;-86
2021/12/09 15:46:02;;;;;;;61.13;27.03;;;;;;;-1.27;100.00;99943.72;4882969;29;20632;-84
2021/12/09 15:48:34;;;;;;;52.80;24.77;;;;;;;-1.32;100.00;99940.22;4860159;29;20499;-85
2021/12/09 15:51:07;;;;;;;56.20;25.00;;;;;;;-1.24;100.00;99948.09;4888413;29;20048;-85
2021/12/09 15:53:40;;;;;;;51.50;24.88;;;;;;;-1.31;100.00;99943.66;4872186;29;20064;-86
2021/12/09 15:56:10;;;;;;;54.17;25.23;;;;;;;-1.28;100.00;99946.28;4852974;29;20046;-86
2021/12/09 15:58:37;;;;;;;52.30;24.97;;;;;;;-1.19;100.00;99941.25;4866333;29;20586;-85
2021/12/09 16:01:06;;;;;;;58.53;27.83;;;;;;;-1.15;100.00;99940.47;4863365;29;20032;-86
2021/12/09 16:03:32;;;;;;;56.23;24.63;;;;;;;-1.21;100.00;99936.06;4854595;29;20110;-86
2021/12/09 16:05:59;;;;;;;55.70;27.00;;;;;;;-1.15;100.00;99930.97;4848885;29;20082;-85
2021/12/09 16:08:27;;;;;;;51.17;23.23;;;;;;;-1.23;100.00;99927.38;4862609;29;20049;-85
2021/12/09 16:10:54;;;;;;;46.03;23.63;;;;;;;-1.27;100.00;99920.41;4847102;29;20112;-85
2021/12/09 16:13:22;;;;;;;58.40;24.93;;;;;;;-1.25;100.00;99921.31;4861681;29;20049;-86
2021/12/09 16:16:02;;;;;;;68.80;30.70;;;;;;;-1.27;100.00;99923.00;4854677;29;20055;-87
2021/12/09 16:18:37;;;;;;;58.83;27.73;;;;;;;-1.29;100.00;99929.00;4868004;29;20548;-85
2021/12/09 16:21:07;;;;;;;57.10;27.80;;;;;;;-1.25;100.00;99917.84;4864279;29;20041;-85
2021/12/09 16:23:36;;;;;;;56.17;27.37;;;;;;;-1.16;100.00;99902.44;4851669;29;20040;-86
2021/12/09 16:26:05;;;;;;;53.80;24.80;;;;;;;-1.19;100.00;99904.97;4867355;29;20140;-86
2021/12/09 16:28:32;;;;;;;54.20;26.03;;;;;;;-1.23;100.00;99911.84;4888612;29;20048;-84
2021/12/09 16:30:59;;;;;;;51.13;25.43;;;;;;;-1.22;100.00;99902.34;4876447;29;20049;-86
2021/12/09 16:33:28;;;;;;;49.13;23.50;;;;;;;-1.14;100.00;99904.19;4856247;29;20053;-86
2021/12/09 16:35:56;;;;;;;56.57;27.00;;;;;;;-1.19;100.00;99902.38;4880091;29;20044;-86
2021/12/09 16:38:25;;;;;;;54.50;23.67;;;;;;;-1.27;100.00;99904.84;4880466;29;20083;-85
2021/12/09 16:40:53;;;;;;;56.27;26.20;;;;;;;-1.24;100.00;99901.47;4868480;29;20069;-84
2021/12/09 16:43:22;;;;;;;53.53;24.40;;;;;;;-1.21;100.00;99893.72;4857879;29;20052;-86
2021/12/09 16:45:51;;;;;;;52.40;23.83;;;;;;;-1.20;100.00;99895.44;4872222;29;20041;-86
2021/12/09 16:48:18;;;;;;;47.60;24.33;;;;;;;-1.26;100.00;99905.72;4875587;29;20053;-85
2021/12/09 16:50:46;;;;;;;58.83;26.93;;;;;;;-1.21;100.00;99898.91;4848580;29;20114;-85
2021/12/09 16:53:21;;;;;;;57.10;26.37;;;;;;;-1.22;100.00;99898.03;4850679;29;20040;-83
2021/12/09 16:55:55;;;;;;;55.50;26.20;;;;;;;-1.26;100.00;99906.63;4845801;29;20061;-81
2021/12/09 16:58:35;;;;;;;58.63;25.85;;;;;;;-1.22;100.00;99916.16;4871693;29;20052;-84
2021/12/09 17:01:12;;;;;;;59.20;26.20;;;;;;;-1.21;100.00;99919.63;4858872;29;20037;-86
2021/12/09 17:03:41;;;;;;;56.97;26.70;;;;;;;-1.20;100.00;99921.38;4853537;29;20049;-83
2021/12/09 17:06:08;;;;;;;57.97;28.80;;;;;;;-1.18;100.00;99922.25;4874979;29;20052;-85
2021/12/09 17:08:36;;;;;;;61.20;28.23;;;;;;;-1.18;100.00;99917.06;4864715;29;20053;-86
2021/12/09 17:11:03;;;;;;;58.17;26.60;;;;;;;-1.34;100.00;99922.91;4844838;29;20041;-86
2021/12/09 17:13:30;;;;;;;59.93;28.43;;;;;;;-1.25;100.00;99929.09;4847948;29;20053;-84
2021/12/09 17:15:57;;;;;;;55.47;27.00;;;;;;;-1.22;100.00;99934.31;4857723;29;20151;-83
2021/12/09 17:18:24;;;;;;;59.83;26.87;;;;;;;-1.24;100.00;99938.59;4868229;29;20312;-84
2021/12/09 17:20:50;;;;;;;64.57;29.93;;;;;;;-1.18;100.00;99932.63;4846838;29;20414;-83
2021/12/09 17:23:17;;;;;;;66.23;27.40;;;;;;;-1.11;100.00;99933.59;4860674;29;20038;-84
2021/12/09 17:25:45;;;;;;;57.50;25.77;;;;;;;-1.20;100.00;99940.38;4868155;29;20045;-84
2021/12/09 17:28:17;;;;;;;64.63;27.97;;;;;;;-1.24;100.00;99942.91;4847728;29;20049;-84
2021/12/09 17:30:48;;;;;;;66.37;27.00;;;;;;;-1.29;100.00;99942.84;4850682;29;20052;-83
2021/12/09 17:33:17;;;;;;;72.57;28.53;;;;;;;-1.24;100.00;99936.00;4862299;29;20127;-83